createdAt,value
2023-03-08T00:01:46.395Z,98187.00
2023-03-08T00:04:16.112Z,98178.75
2023-03-08T00:06:45.637Z,98188.53
2023-03-08T00:09:15.198Z,98188.78
2023-03-08T00:11:44.679Z,98182.03
2023-03-08T00:14:14.233Z,98177.31
2023-03-08T00:16:43.779Z,98180.03
2023-03-08T00:19:13.422Z,98174.59
2023-03-08T00:21:42.937Z,98172.09
2023-03-08T00:24:16.834Z,98173.72
2023-03-08T00:26:46.896Z,98171.69
2023-03-08T00:29:16.593Z,98178.56
2023-03-08T00:31:46.254Z,98179.34
2023-03-08T00:34:17.078Z,98177.50
2023-03-08T00:36:46.566Z,98175.91
2023-03-08T00:39:16.667Z,98165.28
2023-03-08T00:41:46.154Z,98172.97
2023-03-08T00:44:15.659Z,98180.69
2023-03-08T00:46:45.310Z,98174.47
2023-03-08T00:49:15.017Z,98172.19
2023-03-08T00:51:44.548Z,98173.75
2023-03-08T00:54:14.104Z,98174.47
2023-03-08T00:56:43.152Z,98175.44
2023-03-08T00:59:12.644Z,98175.59
2023-03-08T01:01:42.235Z,98177.31
2023-03-08T01:04:13.320Z,98180.22
2023-03-08T01:06:43.465Z,98183.25
2023-03-08T01:09:13.167Z,98183.41
2023-03-08T01:11:41.907Z,98175.91
2023-03-08T01:14:11.416Z,98178.53
2023-03-08T01:16:41.210Z,98170.97
2023-03-08T01:19:12.227Z,98166.88
2023-03-08T01:21:41.796Z,98168.44
2023-03-08T01:24:11.315Z,98171.28
2023-03-08T01:26:40.890Z,98166.03
2023-03-08T01:29:10.414Z,98168.94
2023-03-08T01:31:39.959Z,98171.56
2023-03-08T01:34:10.707Z,98175.41
2023-03-08T01:36:40.250Z,98164.63
2023-03-08T01:39:09.786Z,98180.91
2023-03-08T01:41:39.806Z,98195.38
2023-03-08T01:44:18.605Z,98200.94
2023-03-08T01:46:48.211Z,98207.59
2023-03-08T01:49:36.298Z,98197.81
2023-03-08T01:52:15.136Z,98206.81
2023-03-08T01:54:52.448Z,98209.88
2023-03-08T01:58:00.739Z,98207.56
2023-03-08T02:00:30.242Z,98209.88
2023-03-08T02:03:06.611Z,98219.88
2023-03-08T02:05:42.064Z,98214.22
2023-03-08T02:08:11.690Z,98220.81
2023-03-08T02:10:41.482Z,98227.38
2023-03-08T02:13:12.445Z,98239.56
2023-03-08T02:15:42.035Z,98239.22
2023-03-08T02:18:11.649Z,98230.84
2023-03-08T02:20:42.230Z,98234.47
2023-03-08T02:23:25.482Z,98233.53
2023-03-08T02:26:06.143Z,98232.41
2023-03-08T02:28:35.950Z,98228.78
2023-03-08T02:31:05.786Z,98238.13
2023-03-08T02:33:35.359Z,98238.38
2023-03-08T02:36:08.401Z,98238.72
2023-03-08T02:38:38.476Z,98237.19
2023-03-08T02:41:08.143Z,98244.03
2023-03-08T02:43:37.681Z,98241.38
2023-03-08T02:46:07.260Z,98242.56
2023-03-08T02:48:36.828Z,98246.38
2023-03-08T02:51:06.644Z,98246.97
2023-03-08T02:53:36.164Z,98254.34
2023-03-08T02:56:06.079Z,98251.53
2023-03-08T02:58:35.616Z,98257.44
2023-03-08T03:01:11.302Z,98254.34
2023-03-08T03:03:42.301Z,98261.19
2023-03-08T03:06:21.430Z,98273.59
2023-03-08T03:08:51.045Z,98278.47
2023-03-08T03:11:24.002Z,98279.75
2023-03-08T03:14:01.328Z,98287.28
2023-03-08T03:16:30.939Z,98277.81
2023-03-08T03:19:00.732Z,98288.59
2023-03-08T03:21:30.367Z,98292.59
2023-03-08T03:24:00.145Z,98289.59
2023-03-08T03:26:29.679Z,98300.56
2023-03-08T03:29:00.329Z,98300.22
2023-03-08T03:31:30.076Z,98306.88
2023-03-08T03:33:59.659Z,98308.78
2023-03-08T03:36:29.326Z,98317.00
2023-03-08T03:38:59.425Z,98315.28
2023-03-08T03:41:28.941Z,98307.41
2023-03-08T03:43:59.541Z,98316.66
2023-03-08T03:46:29.184Z,98322.81
2023-03-08T03:48:58.886Z,98323.69
2023-03-08T03:51:28.571Z,98320.94
2023-03-08T03:53:59.098Z,98320.16
2023-03-08T03:56:29.048Z,98323.69
2023-03-08T03:58:58.503Z,98325.88
2023-03-08T04:01:31.918Z,98334.97
2023-03-08T04:04:01.458Z,98319.56
2023-03-08T04:06:34.154Z,98328.53
2023-03-08T04:09:08.640Z,98318.72
2023-03-08T04:11:40.806Z,98322.94
2023-03-08T04:14:11.673Z,98307.38
2023-03-08T04:16:41.819Z,98309.25
2023-03-08T04:19:14.123Z,98316.00
2023-03-08T04:21:43.925Z,98310.03
2023-03-08T04:24:13.465Z,98305.47
2023-03-08T04:26:42.953Z,98307.41
2023-03-08T04:29:12.506Z,98308.63
2023-03-08T04:31:42.150Z,98317.25
2023-03-08T04:34:11.710Z,98309.91
2023-03-08T04:36:41.191Z,98317.59
2023-03-08T04:39:10.724Z,98321.97
2023-03-08T04:41:40.199Z,98317.78
2023-03-08T04:44:09.715Z,98333.34
2023-03-08T04:46:39.295Z,98322.91
2023-03-08T04:49:08.846Z,98339.72
2023-03-08T04:51:38.911Z,98344.94
2023-03-08T04:54:08.401Z,98344.06
2023-03-08T04:56:37.976Z,98351.00
2023-03-08T04:59:07.383Z,98345.34
2023-03-08T05:01:36.921Z,98354.75
2023-03-08T05:04:06.416Z,98358.03
2023-03-08T05:06:35.972Z,98345.72
2023-03-08T05:09:06.216Z,98349.16
2023-03-08T05:11:34.923Z,98352.28
2023-03-08T05:14:04.427Z,98357.88
2023-03-08T05:16:34.396Z,98347.03
2023-03-08T05:19:03.933Z,98353.66
2023-03-08T05:21:33.634Z,98372.22
2023-03-08T05:24:03.310Z,98368.47
2023-03-08T05:26:33.833Z,98368.81
2023-03-08T05:29:06.440Z,98365.25
2023-03-08T05:31:40.140Z,98362.84
2023-03-08T05:34:11.693Z,98364.25
2023-03-08T05:36:42.889Z,98359.75
2023-03-08T05:39:12.422Z,98366.44
2023-03-08T05:41:41.915Z,98374.41
2023-03-08T05:44:11.499Z,98378.59
2023-03-08T05:46:41.140Z,98381.34
2023-03-08T05:49:10.690Z,98379.38
2023-03-08T05:51:40.305Z,98393.41
2023-03-08T05:54:10.187Z,98401.16
2023-03-08T05:56:39.670Z,98404.94
2023-03-08T05:59:09.237Z,98406.00
2023-03-08T06:01:38.833Z,98414.59
2023-03-08T06:04:08.609Z,98412.88
2023-03-08T06:06:38.299Z,98419.31
2023-03-08T06:09:08.100Z,98418.59
2023-03-08T06:11:37.637Z,98430.00
2023-03-08T06:14:07.229Z,98431.59
2023-03-08T06:16:36.741Z,98449.78
2023-03-08T06:19:06.272Z,98460.53
2023-03-08T06:21:35.838Z,98462.19
2023-03-08T06:24:05.535Z,98463.56
2023-03-08T06:26:55.743Z,98461.63
2023-03-08T06:29:25.526Z,98458.59
2023-03-08T06:31:55.399Z,98473.88
2023-03-08T06:34:25.030Z,98474.44
2023-03-08T06:36:56.860Z,98473.84
2023-03-08T06:39:30.757Z,98471.66
2023-03-08T06:42:02.776Z,98473.94
2023-03-08T06:44:32.249Z,98475.81
2023-03-08T06:47:01.721Z,98480.28
2023-03-08T06:49:31.305Z,98481.66
2023-03-08T06:52:00.796Z,98481.06
2023-03-08T06:54:30.395Z,98485.97
2023-03-08T06:56:59.944Z,98492.97
2023-03-08T06:59:28.817Z,98495.13
2023-03-08T07:01:57.482Z,98506.03
2023-03-08T07:04:26.976Z,98510.91
2023-03-08T07:06:56.507Z,98518.31
2023-03-08T07:09:26.197Z,98515.56
2023-03-08T07:11:55.717Z,98521.16
2023-03-08T07:14:25.202Z,98520.97
2023-03-08T07:16:54.652Z,98518.56
2023-03-08T07:19:23.423Z,98530.84
2023-03-08T07:21:52.907Z,98535.22
2023-03-08T07:24:22.417Z,98543.00
2023-03-08T07:26:51.898Z,98543.41
2023-03-08T07:29:21.450Z,98541.94
2023-03-08T07:31:50.989Z,98541.19
2023-03-08T07:34:20.490Z,98536.25
2023-03-08T07:36:51.151Z,98530.88
2023-03-08T07:39:20.731Z,98538.59
2023-03-08T07:41:50.573Z,98539.94
2023-03-08T07:44:20.017Z,98549.94
2023-03-08T07:46:49.500Z,98548.69
2023-03-08T07:49:18.962Z,98553.94
2023-03-08T07:51:53.324Z,98552.53
2023-03-08T07:54:23.484Z,98561.88
2023-03-08T07:56:54.987Z,98565.41
2023-03-08T07:59:24.892Z,98572.00
2023-03-08T08:01:54.382Z,98576.97
2023-03-08T08:04:23.871Z,98574.38
2023-03-08T08:06:53.296Z,98577.59
2023-03-08T08:09:22.753Z,98585.22
2023-03-08T08:11:52.245Z,98588.28
2023-03-08T08:14:21.733Z,98587.00
2023-03-08T08:16:51.383Z,98586.91
2023-03-08T08:19:20.866Z,98602.31
2023-03-08T08:21:49.691Z,98604.53
2023-03-08T08:24:19.253Z,98606.06
2023-03-08T08:26:47.911Z,98605.13
2023-03-08T08:29:17.343Z,98600.59
2023-03-08T08:31:46.069Z,98605.50
2023-03-08T08:34:15.611Z,98607.78
2023-03-08T08:36:45.056Z,98609.25
2023-03-08T08:39:13.672Z,98602.09
2023-03-08T08:41:43.166Z,98606.56
2023-03-08T08:44:12.695Z,98603.03
2023-03-08T08:46:41.373Z,98608.34
2023-03-08T08:49:11.813Z,98608.97
2023-03-08T08:51:41.389Z,98610.03
2023-03-08T08:54:10.978Z,98606.25
2023-03-08T08:56:43.137Z,98611.59
2023-03-08T08:59:13.436Z,98615.47
2023-03-08T09:01:45.295Z,98600.53
2023-03-08T09:04:17.081Z,98603.03
2023-03-08T09:06:45.786Z,98603.16
2023-03-08T09:09:14.496Z,98602.19
2023-03-08T09:11:54.209Z,98588.13
2023-03-08T09:14:25.815Z,98592.00
2023-03-08T09:16:54.501Z,98593.03
2023-03-08T09:19:24.028Z,98591.16
2023-03-08T09:21:52.778Z,98594.84
2023-03-08T09:24:21.441Z,98596.63
2023-03-08T09:26:52.941Z,98590.34
2023-03-08T09:29:21.593Z,98588.13
2023-03-08T09:31:51.064Z,98586.22
2023-03-08T09:34:19.704Z,98594.63
2023-03-08T09:36:49.190Z,98598.75
2023-03-08T09:39:17.921Z,98597.53
2023-03-08T09:42:02.650Z,98592.78
2023-03-08T09:45:05.390Z,98589.09
2023-03-08T09:48:11.149Z,98591.03
2023-03-08T09:50:54.368Z,98584.44
2023-03-08T09:53:55.518Z,98585.91
2023-03-08T09:56:50.381Z,98579.31
2023-03-08T09:59:41.140Z,98575.56
2023-03-08T10:02:27.038Z,98570.00
2023-03-08T10:05:14.169Z,98577.94
2023-03-08T10:08:18.407Z,98577.41
2023-03-08T10:11:05.392Z,98576.56
2023-03-08T10:13:44.308Z,98574.69
2023-03-08T10:16:35.979Z,98580.41
2023-03-08T10:19:31.610Z,98571.88
2023-03-08T10:22:16.193Z,98570.16
2023-03-08T10:25:02.049Z,98564.16
2023-03-08T10:27:35.617Z,98561.97
2023-03-08T10:30:16.953Z,98569.91
2023-03-08T10:32:52.109Z,98567.25
2023-03-08T10:35:39.697Z,98561.81
2023-03-08T10:38:17.829Z,98567.63
2023-03-08T10:40:47.360Z,98567.72
2023-03-08T10:43:48.968Z,98564.56
2023-03-08T10:46:25.452Z,98574.75
2023-03-08T10:48:54.475Z,98566.88
2023-03-08T10:51:29.850Z,98566.94
2023-03-08T10:54:04.944Z,98559.53
2023-03-08T10:56:46.697Z,98563.50
2023-03-08T10:59:33.186Z,98558.84
2023-03-08T11:02:22.614Z,98557.72
2023-03-08T11:04:55.777Z,98560.34
2023-03-08T11:07:33.926Z,98551.13
2023-03-08T11:10:19.456Z,98550.03
2023-03-08T11:12:48.327Z,98548.16
2023-03-08T11:15:19.936Z,98535.88
2023-03-08T11:18:54.691Z,98529.28
2023-03-08T11:22:12.403Z,98530.66
2023-03-08T11:25:11.676Z,98529.16
2023-03-08T11:28:52.286Z,98534.41
2023-03-08T11:31:42.243Z,98523.69
2023-03-08T11:34:39.315Z,98508.59
2023-03-08T11:37:50.879Z,98502.16
2023-03-08T11:41:05.271Z,98497.41
2023-03-08T11:44:18.905Z,98495.81
2023-03-08T11:47:51.595Z,98491.75
2023-03-08T11:50:23.927Z,98489.72
2023-03-08T11:53:11.226Z,98504.31
2023-03-08T11:55:57.959Z,98502.16
2023-03-08T11:58:53.822Z,98496.38
2023-03-08T12:02:25.555Z,98498.28
2023-03-08T12:05:23.554Z,98481.22
2023-03-08T12:08:36.248Z,98497.13
2023-03-08T12:11:32.863Z,98483.41
2023-03-08T12:14:30.981Z,98478.16
2023-03-08T12:17:36.992Z,98468.88
2023-03-08T12:20:08.344Z,98469.75
2023-03-08T12:23:08.632Z,98476.72
2023-03-08T12:25:50.797Z,98486.94
2023-03-08T12:29:23.410Z,98478.97
2023-03-08T12:31:53.441Z,98476.56
2023-03-08T12:34:39.750Z,98475.03
2023-03-08T12:37:30.759Z,98463.09
2023-03-08T12:40:27.255Z,98468.69
2023-03-08T12:43:13.956Z,98465.38
2023-03-08T12:45:49.002Z,98463.13
2023-03-08T12:48:48.597Z,98459.47
2023-03-08T12:51:16.808Z,98449.41
2023-03-08T12:53:51.403Z,98450.03
2023-03-08T12:56:48.986Z,98441.31
2023-03-08T12:59:17.420Z,98441.69
2023-03-08T13:02:31.209Z,98429.06
2023-03-08T13:05:35.119Z,98418.47
2023-03-08T13:08:16.339Z,98422.03
2023-03-08T13:10:53.553Z,98415.69
2023-03-08T13:13:57.452Z,98404.03
2023-03-08T13:16:37.796Z,98401.78
2023-03-08T13:19:15.038Z,98396.91
2023-03-08T13:22:21.690Z,98387.88
2023-03-08T13:25:07.502Z,98370.03
2023-03-08T13:28:19.911Z,98359.94
2023-03-08T13:30:58.550Z,98358.09
2023-03-08T13:33:37.748Z,98355.13
2023-03-08T13:36:20.475Z,98348.19
2023-03-08T13:39:27.787Z,98345.94
2023-03-08T13:42:10.263Z,98343.84
2023-03-08T13:44:39.291Z,98343.19
2023-03-08T13:47:30.436Z,98350.16
2023-03-08T13:49:59.517Z,98340.25
2023-03-08T13:52:37.160Z,98333.16
2023-03-08T13:55:16.232Z,98316.53
2023-03-08T13:57:52.865Z,98315.84
2023-03-08T14:00:35.089Z,98294.31
2023-03-08T14:03:07.801Z,98291.75
2023-03-08T14:05:44.223Z,98279.44
2023-03-08T14:08:27.835Z,98275.06
2023-03-08T14:11:08.321Z,98269.38
2023-03-08T14:13:39.620Z,98266.53
2023-03-08T14:16:09.628Z,98277.47
2023-03-08T14:18:46.054Z,98272.22
2023-03-08T14:21:25.833Z,98280.28
2023-03-08T14:23:57.939Z,98277.47
2023-03-08T14:26:39.993Z,98278.16
2023-03-08T14:29:29.446Z,98276.38
2023-03-08T14:32:13.416Z,98279.84
2023-03-08T14:34:44.653Z,98281.06
2023-03-08T14:37:26.543Z,98282.66
2023-03-08T14:40:25.116Z,98272.06
2023-03-08T14:42:59.504Z,98267.34
2023-03-08T14:45:54.781Z,98272.75
2023-03-08T14:48:37.553Z,98285.66
2023-03-08T14:51:31.276Z,98290.63
2023-03-08T14:54:34.050Z,98283.53
2023-03-08T14:57:23.430Z,98287.63
2023-03-08T14:59:53.359Z,98285.22
2023-03-08T15:02:21.146Z,98275.69
2023-03-08T15:04:50.733Z,98282.38
2023-03-08T15:07:24.574Z,98283.09
2023-03-08T15:09:53.296Z,98283.25
2023-03-08T15:12:20.999Z,98270.91
2023-03-08T15:14:48.755Z,98284.38
2023-03-08T15:17:17.263Z,98272.41
2023-03-08T15:19:45.741Z,98262.78
2023-03-08T15:22:15.187Z,98267.53
2023-03-08T15:24:43.027Z,98265.28
2023-03-08T15:27:16.432Z,98258.44
2023-03-08T15:29:44.923Z,98249.81
2023-03-08T15:32:13.434Z,98248.59
2023-03-08T15:34:41.167Z,98233.00
2023-03-08T15:37:15.184Z,98237.25
2023-03-08T15:39:43.030Z,98223.91
2023-03-08T15:42:10.831Z,98226.31
2023-03-08T15:44:39.359Z,98217.25
2023-03-08T15:47:10.716Z,98214.44
2023-03-08T15:49:38.495Z,98219.59
2023-03-08T15:52:08.275Z,98211.44
2023-03-08T15:54:37.222Z,98209.69
2023-03-08T15:57:05.125Z,98212.59
2023-03-08T15:59:33.546Z,98207.41
2023-03-08T16:02:02.530Z,98213.28
2023-03-08T16:04:30.629Z,98207.63
2023-03-08T16:06:58.373Z,98204.22
2023-03-08T16:09:26.132Z,98201.06
2023-03-08T16:11:54.685Z,98189.09
2023-03-08T16:14:24.190Z,98189.50
2023-03-08T16:16:51.945Z,98188.47
2023-03-08T16:19:20.394Z,98183.09
2023-03-08T16:21:51.773Z,98176.16
2023-03-08T16:24:20.380Z,98177.84
2023-03-08T16:26:49.806Z,98175.81
2023-03-08T16:29:18.480Z,98169.00
2023-03-08T16:31:47.226Z,98169.00
2023-03-08T16:34:16.431Z,98167.72
2023-03-08T16:36:45.403Z,98159.56
2023-03-08T16:39:13.943Z,98173.06
2023-03-08T16:41:41.748Z,98171.78
2023-03-08T16:44:28.502Z,98176.66
2023-03-08T16:46:56.842Z,98170.09
2023-03-08T16:49:28.582Z,98168.59
2023-03-08T16:51:59.661Z,98171.66
2023-03-08T16:54:28.231Z,98164.72
2023-03-08T16:56:56.825Z,98161.03
2023-03-08T16:59:24.569Z,98162.63
2023-03-08T17:01:53.195Z,98159.09
2023-03-08T17:04:22.863Z,98154.50
2023-03-08T17:06:51.562Z,98154.00
2023-03-08T17:09:21.013Z,98154.00
2023-03-08T17:11:49.583Z,98156.41
2023-03-08T17:14:19.068Z,98144.94
2023-03-08T17:16:47.649Z,98143.53
2023-03-08T17:19:16.257Z,98150.00
2023-03-08T17:21:45.070Z,98144.38
2023-03-08T17:24:15.016Z,98149.94
2023-03-08T17:26:48.449Z,98145.59
2023-03-08T17:29:17.001Z,98144.22
2023-03-08T17:31:44.885Z,98142.22
2023-03-08T17:34:14.115Z,98144.63
2023-03-08T17:36:43.188Z,98137.69
2023-03-08T17:39:12.841Z,98139.75
2023-03-08T17:41:42.986Z,98143.75
2023-03-08T17:44:13.057Z,98142.06
2023-03-08T17:46:41.587Z,98134.41
2023-03-08T17:49:12.173Z,98122.00
2023-03-08T17:51:40.079Z,98131.72
2023-03-08T17:54:09.490Z,98142.28
2023-03-08T17:56:38.746Z,98146.88
2023-03-08T17:59:08.246Z,98139.53
2023-03-08T18:01:37.704Z,98139.22
2023-03-08T18:04:07.714Z,98130.69
2023-03-08T18:06:43.355Z,98130.44
2023-03-08T18:09:16.599Z,98139.75
2023-03-08T18:11:48.285Z,98126.78
2023-03-08T18:14:16.986Z,98133.66
2023-03-08T18:16:46.619Z,98132.00
2023-03-08T18:19:15.371Z,98134.03
2023-03-08T18:21:45.270Z,98135.97
2023-03-08T18:24:14.402Z,98126.53
2023-03-08T18:26:43.851Z,98125.97
2023-03-08T18:29:15.440Z,98120.59
2023-03-08T18:31:44.586Z,98110.53
2023-03-08T18:34:13.258Z,98116.13
2023-03-08T18:36:42.757Z,98123.69
2023-03-08T18:39:14.058Z,98124.34
2023-03-08T18:41:42.731Z,98120.81
2023-03-08T18:44:13.584Z,98108.88
2023-03-08T18:46:42.331Z,98100.09
2023-03-08T18:49:17.528Z,98106.38
2023-03-08T18:51:47.072Z,98108.31
2023-03-08T18:54:20.827Z,98105.03
2023-03-08T18:56:51.500Z,98103.78
2023-03-08T18:59:20.484Z,98102.81
2023-03-08T19:01:50.285Z,98097.69
2023-03-08T19:04:19.888Z,98096.00
2023-03-08T19:06:48.548Z,98087.22
2023-03-08T19:09:20.816Z,98084.13
2023-03-08T19:11:49.544Z,98091.44
2023-03-08T19:14:24.242Z,98086.09
2023-03-08T19:16:52.891Z,98082.59
2023-03-08T19:19:21.733Z,98089.41
2023-03-08T19:21:50.575Z,98083.25
2023-03-08T19:24:21.807Z,98079.91
2023-03-08T19:26:53.351Z,98072.25
2023-03-08T19:29:25.053Z,98076.97
2023-03-08T19:32:06.833Z,98069.06
2023-03-08T19:34:40.466Z,98068.22
2023-03-08T19:37:09.737Z,98063.16
2023-03-08T19:39:39.652Z,98068.44
2023-03-08T19:42:14.012Z,98073.16
2023-03-08T19:44:42.185Z,98072.94
2023-03-08T19:47:10.805Z,98065.59
2023-03-08T19:49:38.845Z,98078.09
2023-03-08T19:52:07.865Z,98071.94
2023-03-08T19:54:36.573Z,98068.00
2023-03-08T19:57:06.300Z,98069.44
2023-03-08T19:59:38.798Z,98074.81
2023-03-08T20:02:11.748Z,98061.56
2023-03-08T20:04:41.083Z,98064.81
2023-03-08T20:07:09.159Z,98065.50
2023-03-08T20:09:36.856Z,98063.66
2023-03-08T20:12:05.482Z,98052.50
2023-03-08T20:14:33.142Z,98044.44
2023-03-08T20:17:02.014Z,98042.66
2023-03-08T20:19:32.016Z,98053.66
2023-03-08T20:22:01.538Z,98052.22
2023-03-08T20:24:30.492Z,98054.22
2023-03-08T20:26:59.423Z,98052.22
2023-03-08T20:29:27.268Z,98046.63
2023-03-08T20:31:58.388Z,98043.53
2023-03-08T20:34:28.064Z,98035.91
2023-03-08T20:36:56.547Z,98040.25
2023-03-08T20:39:25.085Z,98040.41
2023-03-08T20:41:53.966Z,98044.53
2023-03-08T20:44:21.624Z,98045.78
2023-03-08T20:46:49.551Z,98053.56
2023-03-08T20:49:17.270Z,98044.25
2023-03-08T20:51:45.909Z,98044.69
2023-03-08T20:54:14.418Z,98044.69
2023-03-08T20:56:42.155Z,98043.00
2023-03-08T20:59:11.079Z,98038.59
2023-03-08T21:01:39.803Z,98035.75
2023-03-08T21:04:07.516Z,98033.91
2023-03-08T21:06:35.215Z,98036.44
2023-03-08T21:09:03.585Z,98027.72
2023-03-08T21:11:33.137Z,98037.88
2023-03-08T21:14:01.782Z,98036.75
2023-03-08T21:16:31.202Z,98031.13
2023-03-08T21:19:03.404Z,98034.91
2023-03-08T21:21:35.625Z,98028.28
2023-03-08T21:24:10.786Z,98032.09
2023-03-08T21:26:41.524Z,98040.56
2023-03-08T21:29:15.178Z,98036.31
2023-03-08T21:31:48.608Z,98033.91
2023-03-08T21:34:18.506Z,98040.63
2023-03-08T21:36:47.286Z,98021.44
2023-03-08T21:39:16.060Z,98030.19
2023-03-08T21:41:48.388Z,98032.44
2023-03-08T21:44:20.704Z,98024.25
2023-03-08T21:46:51.625Z,98017.72
2023-03-08T21:49:34.430Z,98018.09
2023-03-08T21:52:03.875Z,98016.00
2023-03-08T21:54:33.011Z,98010.78
2023-03-08T21:57:01.256Z,98023.63
2023-03-08T21:59:29.862Z,98004.97
2023-03-08T22:01:58.934Z,98014.69
2023-03-08T22:04:28.035Z,98015.72
2023-03-08T22:06:57.688Z,98011.25
2023-03-08T22:09:29.209Z,98003.25
2023-03-08T22:11:58.616Z,97993.19
2023-03-08T22:14:28.966Z,97992.50
2023-03-08T22:16:56.838Z,97983.44
2023-03-08T22:19:26.754Z,97968.81
2023-03-08T22:21:54.424Z,97972.50
2023-03-08T22:24:25.835Z,97962.94
2023-03-08T22:26:53.847Z,97963.28
2023-03-08T22:29:21.476Z,97964.00
2023-03-08T22:31:49.209Z,97956.66
2023-03-08T22:34:18.662Z,97951.31
2023-03-08T22:36:46.319Z,97943.69
2023-03-08T22:39:14.910Z,97950.50
2023-03-08T22:41:42.632Z,97951.88
2023-03-08T22:44:15.202Z,97957.25
2023-03-08T22:46:43.250Z,97970.78
2023-03-08T22:49:12.512Z,97975.91
2023-03-08T22:51:42.126Z,97983.50
2023-03-08T22:54:23.184Z,97978.69
2023-03-08T22:56:51.307Z,97968.19
2023-03-08T22:59:19.056Z,97968.72
2023-03-08T23:01:47.631Z,97980.38
2023-03-08T23:04:15.442Z,97980.38
2023-03-08T23:06:45.253Z,97987.50
2023-03-08T23:09:14.112Z,97985.75
2023-03-08T23:11:42.703Z,97978.00
2023-03-08T23:14:11.479Z,97982.59
2023-03-08T23:16:44.415Z,97991.28
2023-03-08T23:19:17.440Z,97982.91
2023-03-08T23:21:45.970Z,97977.53
2023-03-08T23:24:14.538Z,97980.50
2023-03-08T23:26:43.406Z,97975.41
2023-03-08T23:29:11.167Z,97964.69
2023-03-08T23:31:43.321Z,97972.09
2023-03-08T23:34:11.983Z,97974.78
2023-03-08T23:36:39.631Z,97963.41
2023-03-08T23:39:08.333Z,97967.72
2023-03-08T23:41:35.982Z,97963.06
2023-03-08T23:44:04.189Z,97965.66
2023-03-08T23:46:34.783Z,97964.34
2023-03-08T23:49:03.373Z,97960.97
2023-03-08T23:51:34.107Z,97968.25
2023-03-08T23:54:03.891Z,97960.09
2023-03-08T23:56:39.141Z,97955.03
2023-03-08T23:59:21.946Z,97950.66
